Weather History for Stanton, MN

Change the Weather History Date:

Monday, April 1, 2013

  Actual Average (KLVN) Record (KLVN)
Temperature  
Mean Temperature 26 °F -  
Max Temperature 33 °F 48 °F 72 °F (1963)
Min Temperature 20 °F 27 °F 5 °F (1975)
Degree Days  
Heating Degree Days 38    
Moisture  
Dew Point 16 °F    
Average Humidity 63    
Maximum Humidity 74    
Minimum Humidity 48    
Precipitation  
Precipitation 0.00 in - - ()
Sea Level Pressure  
Sea Level Pressure 30.19 in    
Wind  
Wind Speed 14 mph (NW)    
Max Wind Speed 17 mph    
Max Gust Speed 24 mph    
Visibility 10 miles    
Events      
Averages and records for this station are not official NWS values.
T = Trace of Precipitation, MM = Missing Value Source: NWS Daily Summary

Daily Weather History Graph

Daily Weather History Graph

Search for Another Location

Airport:

Trip Planner

Search our weather history database for the weather conditions in past years. The results will help you decide how hot, cold, wet, or windy it might be!

Date:

Astronomy

Apr. 01, 2013 Rise Set
Actual Time 6:52 AM CDT 7:39 PM CDT
Civil Twilight 6:23 AM CDT 8:09 PM CDT
Nautical Twilight 5:48 AM CDT 8:44 PM CDT
Astronomical Twilight 5:11 AM CDT 9:20 PM CDT
Moon 12:58 AM CDT (4/1) 10:29 AM CDT (4/1)
Length of Visible Light 13h 46m
Length of Day
12h 47m
Waning Gibbous, 67% of the Moon is Illuminated
Apr 1
Waning Gibbous
Apr 2
Last Quarter
Apr 10
New
Apr 18
First Quarter
Apr 25
Full

Hourly Weather History & Observations

Time (CDT) Temp. Windchill Dew Point Humidity Pressure Visibility Wind Dir Wind Speed Gust Speed Precip Events Conditions
12:12 AM 26.6 °F 14.3 °F 15.8 °F 64% 30.06 in 10.0 mi NW 16.1 mph 20.7 mph N/A   Clear
12:33 AM 26.1 °F 14.5 °F 15.8 °F 65% 30.07 in 10.0 mi NW 13.8 mph 21.9 mph N/A   Clear
12:53 AM 25.7 °F 13.5 °F 15.3 °F 65% 30.08 in 10.0 mi NW 15.0 mph 23.0 mph N/A   Clear
1:12 AM 25.2 °F 12.4 °F 14.9 °F 65% 30.08 in 10.0 mi NW 16.1 mph - N/A   Clear
1:33 AM 24.8 °F 12.9 °F 14.9 °F 66% 30.09 in 10.0 mi NW 13.8 mph - N/A   Clear
1:53 AM 24.4 °F 11.0 °F 15.1 °F 68% 30.10 in 10.0 mi NW 17.3 mph - N/A   Clear
2:12 AM 23.9 °F 10.8 °F 14.9 °F 69% 30.10 in 10.0 mi NW 16.1 mph 20.7 mph N/A   Clear
2:33 AM 23.9 °F 11.2 °F 14.5 °F 67% 30.10 in 10.0 mi NW 15.0 mph - N/A   Clear
2:53 AM 23.5 °F 11.8 °F 14.5 °F 69% 30.11 in 10.0 mi NW 12.7 mph 20.7 mph N/A   Clear
3:13 AM 23.0 °F 10.1 °F 14.7 °F 71% 30.11 in 10.0 mi NW 15.0 mph - N/A   Clear
3:33 AM 22.8 °F 9.9 °F 14.4 °F 70% 30.12 in 10.0 mi NW 15.0 mph - N/A   Clear
3:53 AM 22.6 °F 9.6 °F 14.5 °F 71% 30.12 in 10.0 mi NW 15.0 mph - N/A   Clear
4:13 AM 22.3 °F 10.2 °F 14.0 °F 71% 30.12 in 10.0 mi NW 12.7 mph 19.6 mph N/A   Clear
4:33 AM 22.1 °F 8.5 °F 13.8 °F 70% 30.13 in 10.0 mi NW 16.1 mph - N/A   Clear
4:52 AM 21.9 °F 9.2 °F 14.0 °F 72% 30.14 in 10.0 mi NW 13.8 mph - N/A   Clear
5:13 AM 21.6 °F 8.2 °F 13.6 °F 72% 30.14 in 10.0 mi NW 15.0 mph 18.4 mph N/A   Clear
5:33 AM 21.2 °F 8.9 °F 13.6 °F 73% 30.15 in 10.0 mi NW 12.7 mph - N/A   Clear
5:52 AM 21.0 °F 9.3 °F 13.5 °F 73% 30.15 in 10.0 mi NW 11.5 mph 17.3 mph N/A   Clear
6:13 AM 20.7 °F 7.6 °F 13.1 °F 73% 30.16 in 10.0 mi NW 13.8 mph - N/A   Clear
6:33 AM 20.3 °F 9.0 °F 13.1 °F 74% 30.17 in 10.0 mi NW 10.4 mph 17.3 mph N/A   Clear
6:52 AM 20.3 °F 7.7 °F 13.1 °F 74% 30.18 in 10.0 mi NW 12.7 mph - N/A   Clear
7:13 AM 20.1 °F 7.5 °F 13.1 °F 74% 30.19 in 10.0 mi WNW 12.7 mph - N/A   Clear
7:33 AM 20.3 °F 9.0 °F 13.1 °F 74% 30.20 in 10.0 mi WNW 10.4 mph 17.3 mph N/A   Clear
7:52 AM 20.7 °F 8.2 °F 13.5 °F 74% 30.20 in 10.0 mi WNW 12.7 mph - N/A   Clear
8:13 AM 21.0 °F 8.1 °F 13.1 °F 71% 30.21 in 10.0 mi WNW 13.8 mph - N/A   Clear
8:33 AM 21.2 °F 7.3 °F 12.9 °F 70% 30.21 in 10.0 mi NW 16.1 mph - N/A   Clear
8:52 AM 21.6 °F 7.8 °F 12.6 °F 68% 30.21 in 10.0 mi NW 16.1 mph - N/A   Clear
9:13 AM 22.1 °F 8.9 °F 12.9 °F 68% 30.22 in 10.0 mi NW 15.0 mph - N/A   Scattered Clouds
9:33 AM 22.3 °F 10.2 °F 12.7 °F 67% 30.22 in 10.0 mi NW 12.7 mph - N/A   Scattered Clouds
9:52 AM 22.8 °F 10.4 °F 13.3 °F 67% 30.22 in 10.0 mi NW 13.8 mph - N/A   Clear
10:13 AM 23.9 °F 12.3 °F 13.1 °F 63% 30.23 in 10.0 mi NW 12.7 mph 17.3 mph N/A   Scattered Clouds
10:33 AM 24.4 °F 14.9 °F 13.8 °F 64% 30.23 in 10.0 mi NW 9.2 mph - N/A   Scattered Clouds
10:52 AM 25.2 °F 15.1 °F 14.0 °F 63% 30.23 in 10.0 mi NW 10.4 mph - N/A   Clear
11:13 AM 26.2 °F 16.4 °F 14.7 °F 62% 30.23 in 10.0 mi WNW 10.4 mph - N/A   Clear
11:33 AM 26.6 °F 17.5 °F 14.5 °F 60% 30.24 in 10.0 mi NW 9.2 mph - N/A   Scattered Clouds
11:52 AM 27.3 °F 17.1 °F 15.4 °F 61% 30.24 in 10.0 mi WNW 11.5 mph - N/A   Clear
12:13 PM 28.0 °F 16.5 °F 14.7 °F 57% 30.24 in 10.0 mi WNW 15.0 mph - N/A   Scattered Clouds
12:33 PM 28.2 °F 18.9 °F 14.7 °F 57% 30.23 in 10.0 mi WNW 10.4 mph - N/A   Scattered Clouds
12:52 PM 29.1 °F 17.5 °F 14.7 °F 55% 30.23 in 10.0 mi WNW 16.1 mph - N/A   Scattered Clouds
1:13 PM 29.8 °F 19.3 °F 14.2 °F 52% 30.23 in 10.0 mi NW 13.8 mph 18.4 mph N/A   Clear
1:33 PM 30.4 °F 21.5 °F 14.0 °F 51% 30.23 in 10.0 mi NW 10.4 mph 18.4 mph N/A   Clear
1:52 PM 30.9 °F 21.2 °F 15.3 °F 52% 30.23 in 10.0 mi WNW 12.7 mph 19.6 mph N/A   Clear
2:13 PM 31.5 °F 20.9 °F 15.4 °F 52% 30.22 in 10.0 mi WNW 15.0 mph - N/A   Clear
2:33 PM 32.0 °F 23.0 °F 15.6 °F 51% 30.22 in 10.0 mi West 11.5 mph - N/A   Clear
2:53 PM 32.0 °F 21.2 °F 16.5 °F 53% 30.22 in 10.0 mi WNW 16.1 mph - N/A   Clear
3:12 PM 32.4 °F 22.1 °F 16.5 °F 52% 30.22 in 10.0 mi WNW 15.0 mph 19.6 mph N/A   Clear
3:33 PM 32.5 °F 22.7 °F 14.5 °F 48% 30.22 in 10.0 mi WNW 13.8 mph 24.2 mph N/A   Clear
3:53 PM 33.1 °F 22.2 °F 15.8 °F 49% 30.21 in 10.0 mi WNW 17.3 mph 20.7 mph N/A   Clear
4:12 PM 33.4 °F 24.3 °F 17.2 °F 52% 30.21 in 10.0 mi WNW 12.7 mph - N/A   Clear
4:33 PM 33.1 °F 23.0 °F 17.2 °F 52% 30.21 in 10.0 mi West 15.0 mph 19.6 mph N/A   Clear
4:53 PM 33.4 °F 24.8 °F 16.9 °F 51% 30.21 in 10.0 mi WNW 11.5 mph - N/A   Clear
5:12 PM 33.3 °F 22.8 °F 16.7 °F 51% 30.21 in 10.0 mi West 16.1 mph - N/A   Clear
5:33 PM 33.3 °F 23.2 °F 17.2 °F 52% 30.21 in 10.0 mi NW 15.0 mph - N/A   Clear
5:53 PM 33.1 °F 23.9 °F 16.9 °F 51% 30.21 in 10.0 mi WNW 12.7 mph - N/A   Clear
6:12 PM 33.1 °F 23.4 °F 16.9 °F 51% 30.21 in 10.0 mi WNW 13.8 mph 19.6 mph N/A   Clear
6:33 PM 32.9 °F 23.7 °F 16.9 °F 52% 30.21 in 10.0 mi WNW 12.7 mph - N/A   Clear
6:53 PM 32.4 °F 22.1 °F 17.4 °F 54% 30.21 in 10.0 mi WNW 15.0 mph - N/A   Clear
7:12 PM 32.0 °F 21.2 °F 17.6 °F 55% 30.21 in 10.0 mi WNW 16.1 mph - N/A   Clear
7:33 PM 31.6 °F 22.1 °F 18.3 °F 58% 30.20 in 10.0 mi WNW 12.7 mph - N/A   Clear
7:53 PM 31.1 °F 21.9 °F 17.8 °F 58% 30.20 in 10.0 mi WNW 11.5 mph - N/A   Clear
8:12 PM 30.7 °F 22.0 °F 18.0 °F 59% 30.21 in 10.0 mi WNW 10.4 mph 17.3 mph N/A   Clear
8:33 PM 30.2 °F 21.9 °F 18.5 °F 62% 30.21 in 10.0 mi WNW 9.2 mph - N/A   Clear
8:53 PM 30.0 °F 21.7 °F 18.9 °F 63% 30.22 in 10.0 mi WNW 9.2 mph - N/A   Clear
9:12 PM 29.8 °F 21.5 °F 18.7 °F 63% 30.22 in 10.0 mi NW 9.2 mph - N/A   Clear
9:33 PM 29.3 °F 20.2 °F 18.9 °F 65% 30.23 in 10.0 mi WNW 10.4 mph - N/A   Clear
9:53 PM 28.9 °F 20.4 °F 19.2 °F 67% 30.23 in 10.0 mi WNW 9.2 mph - N/A   Clear
10:12 PM 28.8 °F 20.2 °F 19.8 °F 69% 30.23 in 10.0 mi WNW 9.2 mph - N/A   Clear
10:33 PM 28.4 °F 19.7 °F 19.9 °F 71% 30.24 in 10.0 mi West 9.2 mph - N/A   Clear
10:53 PM 28.2 °F 18.3 °F 19.9 °F 71% 30.24 in 10.0 mi WNW 11.5 mph - N/A   Clear
11:13 PM 28.0 °F 18.6 °F 19.8 °F 71% 30.23 in 10.0 mi WNW 10.4 mph - N/A   Clear
11:33 PM 27.9 °F 17.8 °F 19.4 °F 71% 30.23 in 10.0 mi West 11.5 mph - N/A   Clear
11:53 PM 27.5 °F 17.4 °F 18.9 °F 70% 30.24 in 10.0 mi West 11.5 mph - N/A   Clear